createdAt,value
2023-01-13T00:00:38.358Z,3.90
2023-01-13T00:03:08.100Z,3.90
2023-01-13T00:05:36.654Z,3.90
2023-01-13T00:08:06.372Z,3.90
2023-01-13T00:10:35.069Z,3.90
2023-01-13T00:13:05.485Z,3.90
2023-01-13T00:15:34.548Z,3.90
2023-01-13T00:18:02.674Z,3.90
2023-01-13T00:20:32.518Z,3.90
2023-01-13T00:23:01.478Z,3.90
2023-01-13T00:25:29.700Z,4.00
2023-01-13T00:27:57.915Z,4.00
2023-01-13T00:30:26.112Z,4.10
2023-01-13T00:32:54.471Z,4.10
2023-01-13T00:35:22.745Z,4.10
2023-01-13T00:37:52.457Z,4.10
2023-01-13T00:40:20.825Z,4.00
2023-01-13T00:43:06.583Z,4.00
2023-01-13T00:45:34.750Z,4.00
2023-01-13T00:48:02.941Z,3.90
2023-01-13T00:50:31.372Z,4.00
2023-01-13T00:53:02.498Z,4.00
2023-01-13T00:55:33.348Z,4.00
2023-01-13T00:58:03.677Z,4.00
2023-01-13T01:00:32.582Z,3.90
2023-01-13T01:03:01.249Z,3.80
2023-01-13T01:05:29.562Z,3.70
2023-01-13T01:07:57.851Z,3.60
2023-01-13T01:10:27.556Z,3.50
2023-01-13T01:12:55.697Z,3.30
2023-01-13T01:15:24.053Z,3.20
2023-01-13T01:17:52.646Z,3.10
2023-01-13T01:20:21.021Z,3.10
2023-01-13T01:22:49.569Z,3.00
2023-01-13T01:25:18.234Z,3.00
2023-01-13T01:27:47.809Z,3.10
2023-01-13T01:30:16.772Z,3.10
2023-01-13T01:32:44.889Z,3.20
2023-01-13T01:35:13.150Z,3.30
2023-01-13T01:37:41.756Z,3.30
2023-01-13T01:40:11.629Z,3.30
2023-01-13T01:42:56.910Z,3.40
2023-01-13T01:45:30.693Z,3.40
2023-01-13T01:48:01.215Z,3.40
2023-01-13T01:50:32.301Z,3.30
2023-01-13T01:53:04.047Z,3.20
2023-01-13T01:55:37.031Z,3.10
2023-01-13T01:58:11.889Z,3.00
2023-01-13T02:00:41.852Z,2.90
2023-01-13T02:03:11.888Z,2.80
2023-01-13T02:05:40.195Z,2.90
2023-01-13T02:08:11.009Z,2.90
2023-01-13T02:10:40.867Z,3.00
2023-01-13T02:13:12.537Z,2.90
2023-01-13T02:15:48.341Z,2.80
2023-01-13T02:18:31.946Z,2.90
2023-01-13T02:21:14.509Z,2.90
2023-01-13T02:24:30.464Z,2.90
2023-01-13T02:27:44.937Z,3.00
2023-01-13T02:30:42.339Z,2.90
2023-01-13T02:33:21.231Z,2.90
2023-01-13T02:35:54.634Z,2.80
2023-01-13T02:38:30.012Z,2.80
2023-01-13T02:41:22.227Z,2.80
2023-01-13T02:44:10.588Z,2.70
2023-01-13T02:46:50.906Z,2.60
2023-01-13T02:49:28.741Z,2.60
2023-01-13T02:52:01.897Z,2.50
2023-01-13T02:54:31.629Z,2.30
2023-01-13T02:57:02.698Z,2.30
2023-01-13T02:59:32.493Z,2.20
2023-01-13T03:02:04.272Z,2.10
2023-01-13T03:04:53.786Z,2.00
2023-01-13T03:07:48.379Z,2.00
2023-01-13T03:10:33.009Z,2.00
2023-01-13T03:13:09.291Z,2.00
2023-01-13T03:15:49.007Z,2.10
2023-01-13T03:18:31.550Z,2.20
2023-01-13T03:21:07.150Z,2.10
2023-01-13T03:23:39.256Z,2.00
2023-01-13T03:26:12.015Z,2.00
2023-01-13T03:28:44.317Z,1.90
2023-01-13T03:31:17.014Z,1.80
2023-01-13T03:33:51.980Z,1.70
2023-01-13T03:36:25.760Z,1.70
2023-01-13T03:38:58.156Z,1.70
2023-01-13T03:41:31.568Z,1.80
2023-01-13T03:44:23.717Z,1.70
2023-01-13T03:47:00.679Z,1.80
2023-01-13T03:49:38.861Z,1.70
2023-01-13T03:52:12.106Z,1.60
2023-01-13T03:54:47.765Z,1.60
2023-01-13T03:57:19.406Z,1.60
2023-01-13T03:59:52.522Z,1.70
2023-01-13T04:02:26.863Z,1.70
2023-01-13T04:05:00.252Z,1.60
2023-01-13T04:07:40.963Z,1.70
2023-01-13T04:10:11.384Z,1.70
2023-01-13T04:13:04.397Z,1.60
2023-01-13T04:15:36.674Z,1.60
2023-01-13T04:18:16.428Z,1.80
2023-01-13T04:20:48.380Z,1.90
2023-01-13T04:23:17.516Z,2.00
2023-01-13T04:25:46.694Z,2.00
2023-01-13T04:28:15.875Z,1.90
2023-01-13T04:30:45.489Z,1.90
2023-01-13T04:33:14.978Z,1.90
2023-01-13T04:35:45.359Z,1.90
2023-01-13T04:38:16.538Z,1.90
2023-01-13T04:40:45.069Z,2.00
2023-01-13T04:43:13.963Z,2.00
2023-01-13T04:45:42.895Z,2.10
2023-01-13T04:48:11.564Z,2.10
2023-01-13T04:50:40.120Z,2.00
2023-01-13T04:53:08.551Z,2.00
2023-01-13T04:55:38.101Z,2.00
2023-01-13T04:58:07.653Z,2.00
2023-01-13T05:00:36.487Z,2.10
2023-01-13T05:03:05.547Z,2.00
2023-01-13T05:05:34.212Z,2.00
2023-01-13T05:08:03.331Z,2.00
2023-01-13T05:10:31.773Z,2.00
2023-01-13T05:13:18.692Z,2.00
2023-01-13T05:16:06.601Z,2.10
2023-01-13T05:18:35.527Z,2.20
2023-01-13T05:21:03.812Z,2.10
2023-01-13T05:23:49.904Z,2.20
2023-01-13T05:26:18.071Z,2.10
2023-01-13T05:28:47.617Z,2.10
2023-01-13T05:31:16.428Z,2.10
2023-01-13T05:33:45.040Z,2.10
2023-01-13T05:36:13.166Z,2.10
2023-01-13T05:38:42.491Z,2.20
2023-01-13T05:41:28.476Z,2.10
2023-01-13T05:43:58.304Z,2.20
2023-01-13T05:46:26.518Z,2.20
2023-01-13T05:48:54.726Z,2.20
2023-01-13T05:51:26.498Z,2.30
2023-01-13T05:53:54.671Z,2.30
2023-01-13T05:56:23.172Z,2.30
2023-01-13T05:58:51.375Z,2.40
2023-01-13T06:01:21.072Z,2.30
2023-01-13T06:03:49.781Z,2.50
2023-01-13T06:06:18.343Z,2.40
2023-01-13T06:08:46.469Z,2.50
2023-01-13T06:11:15.126Z,2.50
2023-01-13T06:13:43.307Z,2.60
2023-01-13T06:16:11.978Z,2.60
2023-01-13T06:18:41.998Z,2.70
2023-01-13T06:21:10.345Z,2.70
2023-01-13T06:23:38.788Z,2.70
2023-01-13T06:26:13.765Z,2.80
2023-01-13T06:28:41.962Z,2.80
2023-01-13T06:31:11.495Z,2.90
2023-01-13T06:33:43.290Z,3.00
2023-01-13T06:36:17.591Z,3.00
2023-01-13T06:38:49.091Z,3.10
2023-01-13T06:41:18.445Z,3.20
2023-01-13T06:43:46.700Z,3.20
2023-01-13T06:46:14.937Z,3.20
2023-01-13T06:48:44.675Z,3.30
2023-01-13T06:51:12.889Z,3.40
2023-01-13T06:53:41.501Z,3.40
2023-01-13T06:56:10.081Z,3.40
2023-01-13T06:58:38.240Z,3.40
2023-01-13T07:01:06.978Z,3.40
2023-01-13T07:03:35.671Z,3.40
2023-01-13T07:06:05.409Z,3.40
2023-01-13T07:08:34.004Z,3.40
2023-01-13T07:11:03.329Z,3.50
2023-01-13T07:13:48.944Z,3.50
2023-01-13T07:16:17.519Z,3.60
2023-01-13T07:18:45.717Z,3.50
2023-01-13T07:21:19.252Z,3.50
2023-01-13T07:23:48.986Z,3.50
2023-01-13T07:26:17.550Z,3.50
2023-01-13T07:28:45.794Z,3.50
2023-01-13T07:31:16.499Z,3.50
2023-01-13T07:33:45.338Z,3.40
2023-01-13T07:36:16.063Z,3.40
2023-01-13T07:38:44.839Z,3.50
2023-01-13T07:41:32.400Z,3.50
2023-01-13T07:44:04.897Z,3.40
2023-01-13T07:46:33.308Z,3.50
2023-01-13T07:49:01.498Z,3.50
2023-01-13T07:51:31.517Z,3.50
2023-01-13T07:53:59.916Z,3.50
2023-01-13T07:56:28.151Z,3.60
2023-01-13T07:58:56.262Z,3.60
2023-01-13T08:01:24.679Z,3.60
2023-01-13T08:03:52.917Z,3.60
2023-01-13T08:06:21.270Z,3.60
2023-01-13T08:08:50.870Z,3.60
2023-01-13T08:11:20.548Z,3.70
2023-01-13T08:13:50.289Z,3.70
2023-01-13T08:16:18.698Z,3.70
2023-01-13T08:18:46.822Z,3.70
2023-01-13T08:21:16.347Z,3.70
2023-01-13T08:23:46.182Z,3.80
2023-01-13T08:26:18.181Z,3.70
2023-01-13T08:28:46.746Z,3.80
2023-01-13T08:31:17.135Z,3.80
2023-01-13T08:33:45.593Z,3.80
2023-01-13T08:36:14.474Z,3.80
2023-01-13T08:38:43.112Z,3.90
2023-01-13T08:41:12.622Z,3.90
2023-01-13T08:43:42.606Z,3.90
2023-01-13T08:46:11.742Z,3.90
2023-01-13T08:48:40.195Z,4.00
2023-01-13T08:51:10.510Z,4.00
2023-01-13T08:53:38.806Z,4.00
2023-01-13T08:56:10.945Z,4.00
2023-01-13T08:58:40.701Z,4.00
2023-01-13T09:01:12.846Z,4.00
2023-01-13T09:03:41.950Z,4.00
2023-01-13T09:06:10.178Z,4.10
2023-01-13T09:08:38.386Z,4.10
2023-01-13T09:11:27.564Z,4.10
2023-01-13T09:13:54.718Z,4.10
2023-01-13T09:16:24.364Z,4.10
2023-01-13T09:18:52.581Z,4.20
2023-01-13T09:21:21.327Z,4.10
2023-01-13T09:23:49.644Z,4.20
2023-01-13T09:26:21.327Z,4.20
2023-01-13T09:28:49.943Z,4.20
2023-01-13T09:31:18.201Z,4.20
2023-01-13T09:34:05.806Z,4.30
2023-01-13T09:36:34.091Z,4.40
2023-01-13T09:39:02.339Z,4.40
2023-01-13T09:41:47.487Z,4.50
2023-01-13T09:44:20.568Z,4.50
2023-01-13T09:46:53.377Z,4.50
2023-01-13T09:49:25.464Z,4.50
2023-01-13T09:51:59.528Z,4.50
2023-01-13T09:54:34.793Z,4.50
2023-01-13T09:57:03.178Z,4.60
2023-01-13T09:59:36.489Z,4.70
2023-01-13T10:02:21.891Z,4.70
2023-01-13T10:05:06.322Z,4.70
2023-01-13T10:07:38.761Z,4.80
2023-01-13T10:10:13.879Z,4.80
2023-01-13T10:13:01.783Z,4.80
2023-01-13T10:15:29.976Z,4.80
2023-01-13T10:18:08.740Z,4.80
2023-01-13T10:20:50.807Z,4.90
2023-01-13T10:23:44.175Z,4.90
2023-01-13T10:26:27.292Z,5.00
2023-01-13T10:28:57.039Z,5.10
2023-01-13T10:31:26.917Z,5.10
2023-01-13T10:34:01.372Z,5.10
2023-01-13T10:36:31.801Z,5.10
2023-01-13T10:39:11.845Z,5.20
2023-01-13T10:41:40.049Z,5.20
2023-01-13T10:44:16.827Z,5.30
2023-01-13T10:46:54.333Z,5.40
2023-01-13T10:49:33.149Z,5.40
2023-01-13T10:52:03.797Z,5.50
2023-01-13T10:54:32.911Z,5.50
2023-01-13T10:57:25.999Z,5.50
2023-01-13T10:59:55.618Z,5.50
2023-01-13T11:02:31.060Z,5.60
2023-01-13T11:05:10.652Z,5.60
2023-01-13T11:07:43.199Z,5.70
2023-01-13T11:10:20.330Z,5.70
2023-01-13T11:13:03.852Z,5.80
2023-01-13T11:15:40.717Z,5.80
2023-01-13T11:18:17.951Z,5.90
2023-01-13T11:20:48.687Z,5.90
2023-01-13T11:23:25.799Z,6.10
2023-01-13T11:25:59.436Z,6.10
2023-01-13T11:28:53.674Z,6.10
2023-01-13T11:31:26.375Z,6.00
2023-01-13T11:34:00.369Z,6.00
2023-01-13T11:36:35.466Z,6.00
2023-01-13T11:39:15.266Z,6.00
2023-01-13T11:41:46.005Z,5.90
2023-01-13T11:44:22.865Z,5.90
2023-01-13T11:46:52.267Z,6.00
2023-01-13T11:49:26.576Z,6.00
2023-01-13T11:52:00.900Z,6.00
2023-01-13T11:54:53.623Z,6.00
2023-01-13T11:57:44.418Z,6.00
2023-01-13T12:00:33.887Z,6.00
2023-01-13T12:03:24.302Z,6.00
2023-01-13T12:06:10.107Z,6.00
2023-01-13T12:09:11.917Z,6.10
2023-01-13T12:12:17.528Z,6.00
2023-01-13T12:15:05.621Z,6.00
2023-01-13T12:17:43.960Z,6.10
2023-01-13T12:20:26.616Z,6.10
2023-01-13T12:23:01.271Z,6.10
2023-01-13T12:25:37.144Z,6.10
2023-01-13T12:28:15.456Z,6.10
2023-01-13T12:30:50.719Z,6.00
2023-01-13T12:33:30.560Z,6.00
2023-01-13T12:36:03.498Z,6.00
2023-01-13T12:38:38.449Z,6.00
2023-01-13T12:41:17.137Z,5.90
2023-01-13T12:44:07.554Z,6.00
2023-01-13T12:46:44.893Z,5.90
2023-01-13T12:49:27.985Z,5.90
2023-01-13T12:52:20.131Z,5.90
2023-01-13T12:55:18.632Z,5.90
2023-01-13T12:58:17.446Z,5.80
2023-01-13T13:01:07.123Z,5.70
2023-01-13T13:03:37.488Z,5.70
2023-01-13T13:06:10.936Z,5.70
2023-01-13T13:09:03.949Z,5.60
2023-01-13T13:12:05.294Z,5.60
2023-01-13T13:15:03.357Z,5.50
2023-01-13T13:17:47.233Z,5.40
2023-01-13T13:20:54.144Z,5.30
2023-01-13T13:23:40.722Z,5.30
2023-01-13T13:26:24.847Z,5.20
2023-01-13T13:29:09.178Z,5.20
2023-01-13T13:32:10.255Z,5.10
2023-01-13T13:34:50.142Z,5.10
2023-01-13T13:37:33.063Z,5.10
2023-01-13T13:40:21.844Z,5.10
2023-01-13T13:43:14.538Z,5.10
2023-01-13T13:46:09.334Z,5.00
2023-01-13T13:48:37.686Z,5.00
2023-01-13T13:51:27.334Z,5.10
2023-01-13T13:53:59.321Z,5.10
2023-01-13T13:56:30.145Z,5.20
2023-01-13T13:58:58.697Z,5.20
2023-01-13T14:01:30.018Z,5.10
2023-01-13T14:04:06.793Z,5.10
2023-01-13T14:06:36.494Z,5.10
2023-01-13T14:09:05.227Z,5.20
2023-01-13T14:11:35.037Z,5.10
2023-01-13T14:14:05.159Z,5.10
2023-01-13T14:16:36.118Z,5.10
2023-01-13T14:19:04.785Z,5.10
2023-01-13T14:21:33.189Z,5.10
2023-01-13T14:24:10.738Z,5.10
2023-01-13T14:26:39.339Z,5.10
2023-01-13T14:29:08.124Z,5.10
2023-01-13T14:31:36.894Z,5.00
2023-01-13T14:34:31.441Z,5.10
2023-01-13T14:36:56.704Z,5.10
2023-01-13T14:39:34.536Z,5.10
2023-01-13T14:42:02.801Z,5.20
2023-01-13T14:44:34.223Z,5.20
2023-01-13T14:47:05.522Z,5.10
2023-01-13T14:49:39.433Z,5.10
2023-01-13T14:52:15.169Z,5.10
2023-01-13T14:54:47.628Z,5.10
2023-01-13T14:57:24.338Z,5.00
2023-01-13T15:00:03.292Z,5.00
2023-01-13T15:02:43.792Z,5.00
2023-01-13T15:05:38.192Z,5.00
2023-01-13T15:08:33.969Z,5.00
2023-01-13T15:11:07.191Z,5.00
2023-01-13T15:13:42.616Z,5.00
2023-01-13T15:16:24.974Z,5.00
2023-01-13T15:18:54.536Z,5.10
2023-01-13T15:21:23.454Z,5.10
2023-01-13T15:23:51.670Z,5.10
2023-01-13T15:26:24.273Z,5.10
2023-01-13T15:28:53.293Z,5.10
2023-01-13T15:31:22.459Z,5.10
2023-01-13T15:33:51.545Z,5.20
2023-01-13T15:36:28.471Z,5.20
2023-01-13T15:38:58.544Z,5.20
2023-01-13T15:41:45.098Z,5.20
2023-01-13T15:44:33.015Z,5.20
2023-01-13T15:47:04.112Z,5.30
2023-01-13T15:49:36.244Z,5.30
2023-01-13T15:52:05.483Z,5.30
2023-01-13T15:54:33.761Z,5.40
2023-01-13T15:57:03.726Z,5.40
2023-01-13T15:59:32.137Z,5.40
2023-01-13T16:02:00.314Z,5.40
2023-01-13T16:04:28.697Z,5.30
2023-01-13T16:06:56.856Z,5.40
2023-01-13T16:09:24.995Z,5.40
2023-01-13T16:11:53.662Z,5.30
2023-01-13T16:14:23.235Z,5.30
2023-01-13T16:16:52.196Z,5.30
2023-01-13T16:19:20.427Z,5.30
2023-01-13T16:21:48.584Z,5.30
2023-01-13T16:24:16.834Z,5.40
2023-01-13T16:26:46.069Z,5.30
2023-01-13T16:29:14.500Z,5.40
2023-01-13T16:31:44.144Z,5.40
2023-01-13T16:34:12.719Z,5.40
2023-01-13T16:36:41.001Z,5.40
2023-01-13T16:39:21.784Z,5.40
2023-01-13T16:41:50.087Z,5.40
2023-01-13T16:44:18.517Z,5.40
2023-01-13T16:46:48.716Z,5.40
2023-01-13T16:49:18.449Z,5.40
2023-01-13T16:51:46.582Z,5.40
2023-01-13T16:54:15.156Z,5.30
2023-01-13T16:56:43.440Z,5.30
2023-01-13T16:59:14.484Z,5.30
2023-01-13T17:01:45.038Z,5.30
2023-01-13T17:04:18.341Z,5.30
2023-01-13T17:06:54.436Z,5.30
2023-01-13T17:09:25.272Z,5.40
2023-01-13T17:11:53.852Z,5.40
2023-01-13T17:14:23.862Z,5.40
2023-01-13T17:16:53.533Z,5.40
2023-01-13T17:19:25.725Z,5.40
2023-01-13T17:21:54.028Z,5.40
2023-01-13T17:24:24.765Z,5.40
2023-01-13T17:26:53.494Z,5.40
2023-01-13T17:29:25.689Z,5.50
2023-01-13T17:31:54.951Z,5.40
2023-01-13T17:34:24.501Z,5.40
2023-01-13T17:36:52.642Z,5.40
2023-01-13T17:39:23.618Z,5.40
2023-01-13T17:41:52.565Z,5.40
2023-01-13T17:44:22.694Z,5.30
2023-01-13T17:46:51.121Z,5.30
2023-01-13T17:49:21.783Z,5.20
2023-01-13T17:51:53.086Z,5.20
2023-01-13T17:54:21.551Z,5.10
2023-01-13T17:56:49.970Z,5.10
2023-01-13T17:59:20.365Z,5.00
2023-01-13T18:01:48.649Z,4.90
2023-01-13T18:04:18.418Z,5.00
2023-01-13T18:06:47.865Z,4.90
2023-01-13T18:09:18.193Z,4.90
2023-01-13T18:11:47.369Z,5.00
2023-01-13T18:14:16.172Z,5.00
2023-01-13T18:16:44.778Z,5.10
2023-01-13T18:19:30.143Z,5.10
2023-01-13T18:22:16.389Z,5.20
2023-01-13T18:25:03.901Z,5.20
2023-01-13T18:27:34.655Z,5.20
2023-01-13T18:30:03.841Z,5.20
2023-01-13T18:32:33.824Z,5.20
2023-01-13T18:35:06.779Z,5.20
2023-01-13T18:37:38.544Z,5.30
2023-01-13T18:40:10.422Z,5.20
2023-01-13T18:42:55.037Z,5.20
2023-01-13T18:45:25.360Z,5.20
2023-01-13T18:47:55.294Z,5.10
2023-01-13T18:50:23.635Z,5.20
2023-01-13T18:52:52.127Z,5.20
2023-01-13T18:55:22.390Z,5.20
2023-01-13T18:57:51.044Z,5.30
2023-01-13T19:00:21.089Z,5.30
2023-01-13T19:02:50.737Z,5.30
2023-01-13T19:05:19.222Z,5.30
2023-01-13T19:07:51.014Z,5.30
2023-01-13T19:10:23.281Z,5.40
2023-01-13T19:12:51.409Z,5.40
2023-01-13T19:15:19.590Z,5.40
2023-01-13T19:17:48.036Z,5.50
2023-01-13T19:20:16.409Z,5.40
2023-01-13T19:22:46.232Z,5.50
2023-01-13T19:25:14.854Z,5.50
2023-01-13T19:27:44.392Z,5.50
2023-01-13T19:30:13.830Z,5.50
2023-01-13T19:32:42.275Z,5.50
2023-01-13T19:35:13.156Z,5.50
2023-01-13T19:37:43.111Z,5.60
2023-01-13T19:40:14.458Z,5.60
2023-01-13T19:43:02.865Z,5.50
2023-01-13T19:45:33.878Z,5.50
2023-01-13T19:48:05.001Z,5.50
2023-01-13T19:50:37.626Z,5.50
2023-01-13T19:53:05.875Z,5.50
2023-01-13T19:55:34.416Z,5.50
2023-01-13T19:58:04.522Z,5.50
2023-01-13T20:00:33.390Z,5.50
2023-01-13T20:03:03.600Z,5.50
2023-01-13T20:05:32.363Z,5.50
2023-01-13T20:08:00.866Z,5.50
2023-01-13T20:10:30.468Z,5.50
2023-01-13T20:12:58.712Z,5.50
2023-01-13T20:15:28.228Z,5.40
2023-01-13T20:17:57.951Z,5.50
2023-01-13T20:20:27.746Z,5.50
2023-01-13T20:22:58.137Z,5.50
2023-01-13T20:25:28.995Z,5.50
2023-01-13T20:27:58.635Z,5.50
2023-01-13T20:30:28.412Z,5.40
2023-01-13T20:32:57.035Z,5.40
2023-01-13T20:35:29.632Z,5.40
2023-01-13T20:37:58.257Z,5.40
2023-01-13T20:40:26.479Z,5.30
2023-01-13T20:42:53.685Z,5.30
2023-01-13T20:45:23.359Z,5.30
2023-01-13T20:47:53.178Z,5.30
2023-01-13T20:50:21.773Z,5.30
2023-01-13T20:52:52.544Z,5.30
2023-01-13T20:55:20.893Z,5.30
2023-01-13T20:57:50.371Z,5.40
2023-01-13T21:00:19.828Z,5.40
2023-01-13T21:02:48.157Z,5.40
2023-01-13T21:05:17.843Z,5.40
2023-01-13T21:07:46.247Z,5.40
2023-01-13T21:10:14.476Z,5.40
2023-01-13T21:13:00.116Z,5.40
2023-01-13T21:15:28.341Z,5.40
2023-01-13T21:18:13.747Z,5.40
2023-01-13T21:20:43.584Z,5.50
2023-01-13T21:23:12.027Z,5.50
2023-01-13T21:25:40.717Z,5.50
2023-01-13T21:28:11.579Z,5.50
2023-01-13T21:30:40.576Z,5.50
2023-01-13T21:33:09.754Z,5.40
2023-01-13T21:35:43.002Z,5.50
2023-01-13T21:38:13.122Z,5.50
2023-01-13T21:40:41.358Z,5.50
2023-01-13T21:43:31.483Z,5.50
2023-01-13T21:46:31.577Z,5.50
2023-01-13T21:49:00.469Z,5.50
2023-01-13T21:51:30.630Z,5.50
2023-01-13T21:53:58.895Z,5.50
2023-01-13T21:56:27.710Z,5.50
2023-01-13T21:58:57.125Z,5.50
2023-01-13T22:01:25.407Z,5.50
2023-01-13T22:04:11.641Z,5.50
2023-01-13T22:06:41.412Z,5.50
2023-01-13T22:09:09.791Z,5.50
2023-01-13T22:11:38.319Z,5.50
2023-01-13T22:14:06.992Z,5.50
2023-01-13T22:16:37.912Z,5.50
2023-01-13T22:19:06.929Z,5.50
2023-01-13T22:21:35.475Z,5.50
2023-01-13T22:24:05.785Z,5.50
2023-01-13T22:26:35.717Z,5.50
2023-01-13T22:29:03.852Z,5.50
2023-01-13T22:31:32.532Z,5.50
2023-01-13T22:34:01.189Z,5.50
2023-01-13T22:36:29.300Z,5.50
2023-01-13T22:39:00.328Z,5.50
2023-01-13T22:41:30.283Z,5.50
2023-01-13T22:43:58.829Z,5.50
2023-01-13T22:46:27.086Z,5.50
2023-01-13T22:48:56.260Z,5.50
2023-01-13T22:51:26.538Z,5.50
2023-01-13T22:53:56.487Z,5.50
2023-01-13T22:56:27.645Z,5.50
2023-01-13T22:58:58.135Z,5.50
2023-01-13T23:01:28.041Z,5.60
2023-01-13T23:03:57.086Z,5.60
2023-01-13T23:06:27.037Z,5.60
2023-01-13T23:08:55.899Z,5.60
2023-01-13T23:11:26.792Z,5.60
2023-01-13T23:14:00.583Z,5.60
2023-01-13T23:16:30.167Z,5.60
2023-01-13T23:18:58.942Z,5.60
2023-01-13T23:21:29.874Z,5.60
2023-01-13T23:23:58.952Z,5.60
2023-01-13T23:26:28.536Z,5.60
2023-01-13T23:29:01.677Z,5.60
2023-01-13T23:31:30.279Z,5.60
2023-01-13T23:33:58.484Z,5.60
2023-01-13T23:36:28.677Z,5.60
2023-01-13T23:38:58.344Z,5.60
2023-01-13T23:41:28.606Z,5.60
2023-01-13T23:43:58.292Z,5.50
2023-01-13T23:46:28.802Z,5.50
2023-01-13T23:48:56.987Z,5.50
2023-01-13T23:51:26.335Z,5.60
2023-01-13T23:53:55.039Z,5.60
2023-01-13T23:56:26.011Z,5.60
2023-01-13T23:58:54.464Z,5.60
